Pagina principale
METAR-TAF:

METAR-TAF

Aeroporti :

Nancy, Francia

latitudine: 48-35N, longitudine: 005-58E, altezza: 336 m

Osservazione

Il bollettino è stato emesso 20 minuti fa, alle 03:00 UTC
Vento 3 kt da direzioni variabili
Temperature 8°C
Umidità 100%
Pressione 1025 hPa
Visibilità: 2600 m
Cielo coperto ad un'altezza di 900 ft
pioviggine debole, foschia

METAR: LFSO 240300Z AUTO VRB03KT 2600 -DZ BR OVC009 08/08 Q1025

Ora: 04:20 (03:20 UTC)


TAF: mancante

Osservazioni e previsioni meteorologiche di più di 4000 aeroporti (messaggi METAR e TAF).

Le stazioni disponibili sono rappresentate dai dischi gialli e rossi sulla carta.

Puntare il mouse per vedere il nome della stazione.

Clicca sopra per visualizzare le osservazioni e previsioni meteorologiche.

Per cambiare la mappa : fare clic sui pulsanti verdi con una croce nera per ingrandire, il pulsante verde con un trattino per diminuire, o sulla freccia verde per le mappe adiacenti.


METAR-TAF: